Daisetta, Texas
Current Conditions -  °F | °C
As of 2:15 AM on Sunday 23 Nov 2014 (Local Time) from KBMT Reporting Station
Moderate Rain Moderate Rain  
Wind Chill: 62°   Ceiling: 5500
Heat Index: 62°   Visibility: 7mi
Dew Point: 62°   Wind: 6mph
Humidity: 99%   Direction: 210°SSW
Pressure: 29.71"   Gusts: NA
Location:  30.11°N, 94.64°W
Report Text: KBMT 230815Z AUTO 21005KT 7SM RA SCT006 SCT040 OVC055 17/17 A2971 RMK AO2 LTG DSNT SE T01670165
Loading
Personal Weather Stations






























Interactive Weather Map New forecast layout! Learn more

10-Day Weather Forecast

Advertisements
Track Severe Weather on mobile